createdAt,value
2023-03-10T00:01:19.282Z,2.00
2023-03-10T00:03:46.396Z,2.00
2023-03-10T00:06:15.728Z,1.77
2023-03-10T00:08:42.791Z,1.98
2023-03-10T00:11:09.607Z,2.30
2023-03-10T00:13:36.627Z,1.90
2023-03-10T00:16:03.233Z,1.95
2023-03-10T00:18:50.144Z,2.13
2023-03-10T00:23:44.600Z,1.67
2023-03-10T00:26:16.341Z,1.42
2023-03-10T00:28:42.909Z,1.60
2023-03-10T00:31:12.702Z,1.90
2023-03-10T00:33:39.457Z,1.90
2023-03-10T00:36:08.140Z,1.80
2023-03-10T00:38:36.222Z,1.88
2023-03-10T00:41:17.690Z,2.17
2023-03-10T00:43:44.972Z,1.52
2023-03-10T00:46:11.856Z,1.92
2023-03-10T00:48:38.726Z,1.88
2023-03-10T00:51:06.050Z,1.70
2023-03-10T00:53:35.300Z,1.63
2023-03-10T00:56:12.586Z,1.88
2023-03-10T00:58:39.247Z,1.45
2023-03-10T01:01:15.617Z,1.23
2023-03-10T01:06:09.947Z,1.50
2023-03-10T01:08:36.390Z,1.90
2023-03-10T01:11:02.965Z,2.03
2023-03-10T01:13:30.557Z,1.55
2023-03-10T01:15:57.026Z,1.63
2023-03-10T01:18:23.957Z,1.50
2023-03-10T01:20:50.541Z,1.60
2023-03-10T01:23:20.627Z,1.45
2023-03-10T01:25:47.378Z,1.70
2023-03-10T01:28:13.939Z,1.48
2023-03-10T01:30:41.652Z,1.33
2023-03-10T01:33:08.859Z,1.63
2023-03-10T01:35:35.801Z,1.52
2023-03-10T01:38:02.319Z,1.50
2023-03-10T01:40:29.100Z,1.95
2023-03-10T01:43:20.577Z,1.58
2023-03-10T01:45:46.908Z,1.88
2023-03-10T01:48:15.644Z,1.80
2023-03-10T01:50:45.447Z,2.10
2023-03-10T01:53:14.426Z,1.40
2023-03-10T01:55:46.641Z,1.52
2023-03-10T01:58:15.810Z,1.80
2023-03-10T02:00:43.802Z,1.45
2023-03-10T02:03:18.100Z,1.40
2023-03-10T02:05:49.916Z,1.70
2023-03-10T02:08:18.083Z,1.60
2023-03-10T02:10:44.936Z,1.85
2023-03-10T02:13:21.748Z,1.70
2023-03-10T02:15:49.341Z,1.40
2023-03-10T02:18:17.466Z,1.38
2023-03-10T02:20:46.718Z,1.80
2023-03-10T02:23:20.227Z,1.40
2023-03-10T02:25:53.731Z,1.48
2023-03-10T02:28:20.164Z,1.80
2023-03-10T02:30:49.563Z,1.30
2023-03-10T02:33:30.212Z,1.40
2023-03-10T02:36:15.003Z,1.60
2023-03-10T02:38:41.793Z,1.50
2023-03-10T02:41:42.999Z,1.67
2023-03-10T02:44:14.801Z,1.38
2023-03-10T02:46:41.249Z,1.30
2023-03-10T02:49:10.663Z,1.38
2023-03-10T02:51:42.608Z,1.42
2023-03-10T02:54:10.397Z,1.63
2023-03-10T02:56:38.444Z,1.67
2023-03-10T02:59:08.932Z,1.58
2023-03-10T03:01:35.465Z,1.42
2023-03-10T03:04:02.160Z,1.23
2023-03-10T03:06:29.493Z,1.00
2023-03-10T03:08:56.397Z,1.40
2023-03-10T03:11:22.871Z,1.25
2023-03-10T03:13:49.289Z,0.98
2023-03-10T03:16:15.720Z,0.93
2023-03-10T03:18:42.106Z,1.60
2023-03-10T03:21:11.853Z,1.10
2023-03-10T03:23:38.859Z,1.45
2023-03-10T03:26:14.183Z,1.25
2023-03-10T03:28:40.585Z,1.38
2023-03-10T03:31:07.000Z,1.23
2023-03-10T03:33:34.204Z,1.33
2023-03-10T03:36:00.698Z,1.33
2023-03-10T03:38:27.162Z,1.23
2023-03-10T03:40:53.593Z,1.10
2023-03-10T03:43:20.009Z,1.25
2023-03-10T03:45:46.442Z,1.23
2023-03-10T03:48:13.908Z,1.50
2023-03-10T03:50:40.373Z,1.35
2023-03-10T03:53:06.777Z,1.30
2023-03-10T03:55:33.163Z,1.45
2023-03-10T03:57:59.686Z,1.27
2023-03-10T04:00:26.261Z,1.60
2023-03-10T04:02:53.007Z,1.40
2023-03-10T04:05:19.494Z,1.75
2023-03-10T04:07:48.177Z,1.20
2023-03-10T04:10:18.176Z,1.50
2023-03-10T04:12:44.603Z,1.40
2023-03-10T04:15:11.514Z,1.17
2023-03-10T04:17:46.143Z,1.33
2023-03-10T04:20:15.358Z,1.15
2023-03-10T04:22:42.263Z,1.30
2023-03-10T04:25:09.578Z,1.42
2023-03-10T04:27:36.403Z,1.40
2023-03-10T04:30:04.319Z,1.23
2023-03-10T04:32:32.312Z,1.20
2023-03-10T04:34:58.775Z,1.20
2023-03-10T04:37:26.643Z,1.00
2023-03-10T04:39:54.128Z,1.00
2023-03-10T04:42:21.036Z,1.20
2023-03-10T04:44:47.429Z,1.25
2023-03-10T04:47:13.851Z,1.00
2023-03-10T04:49:40.463Z,1.33
2023-03-10T04:52:07.067Z,1.08
2023-03-10T04:54:33.576Z,1.10
2023-03-10T04:56:59.995Z,1.00
2023-03-10T04:59:26.553Z,1.00
2023-03-10T05:02:00.338Z,1.10
2023-03-10T05:04:26.851Z,1.20
2023-03-10T05:06:53.507Z,0.85
2023-03-10T05:09:19.963Z,1.10
2023-03-10T05:11:46.497Z,0.70
2023-03-10T05:14:14.051Z,0.90
2023-03-10T05:16:40.441Z,0.85
2023-03-10T05:19:07.046Z,1.40
2023-03-10T05:21:33.911Z,0.98
2023-03-10T05:24:00.949Z,1.00
2023-03-10T05:26:27.714Z,0.90
2023-03-10T05:28:54.203Z,1.90
2023-03-10T05:31:26.499Z,1.50
2023-03-10T05:33:54.455Z,1.48
2023-03-10T05:36:21.367Z,1.45
2023-03-10T05:38:47.835Z,1.05
2023-03-10T05:41:28.197Z,1.17
2023-03-10T05:43:55.383Z,0.90
2023-03-10T05:46:21.804Z,1.08
2023-03-10T05:48:48.255Z,1.45
2023-03-10T05:51:17.874Z,1.20
2023-03-10T05:53:44.697Z,1.13
2023-03-10T05:56:17.117Z,1.15
2023-03-10T05:58:44.411Z,1.17
2023-03-10T06:01:10.921Z,1.05
2023-03-10T06:03:38.108Z,1.10
2023-03-10T06:06:06.770Z,1.20
2023-03-10T06:08:33.972Z,1.17
2023-03-10T06:11:00.475Z,1.80
2023-03-10T06:13:27.236Z,2.30
2023-03-10T06:15:56.644Z,2.50
2023-03-10T06:18:24.673Z,2.03
2023-03-10T06:20:53.514Z,2.20
2023-03-10T06:23:20.751Z,1.80
2023-03-10T06:26:09.459Z,2.05
2023-03-10T06:28:40.350Z,13.07
2023-03-10T06:31:12.746Z,5.05
2023-03-10T06:33:39.352Z,10.43
2023-03-10T06:36:06.341Z,5.28
2023-03-10T06:38:32.771Z,2.25
2023-03-10T06:40:59.217Z,1.52
2023-03-10T06:43:25.723Z,1.70
2023-03-10T06:45:52.236Z,6.82
2023-03-10T06:48:23.775Z,6.22
2023-03-10T06:50:50.482Z,1.92
2023-03-10T06:53:19.472Z,1.73
2023-03-10T06:56:00.641Z,1.85
2023-03-10T06:58:27.545Z,1.48
2023-03-10T07:00:54.203Z,1.85
2023-03-10T07:03:20.614Z,1.90
2023-03-10T07:05:49.181Z,1.70
2023-03-10T07:08:24.966Z,1.50
2023-03-10T07:10:51.906Z,1.63
2023-03-10T07:13:19.236Z,1.30
2023-03-10T07:15:46.413Z,1.90
2023-03-10T07:18:13.547Z,1.80
2023-03-10T07:20:42.000Z,1.70
2023-03-10T07:23:08.484Z,2.00
2023-03-10T07:25:36.159Z,2.30
2023-03-10T07:28:03.530Z,2.17
2023-03-10T07:30:30.272Z,2.35
2023-03-10T07:33:08.204Z,2.10
2023-03-10T07:35:38.531Z,1.35
2023-03-10T07:38:04.988Z,2.10
2023-03-10T07:40:31.493Z,1.80
2023-03-10T07:42:58.188Z,1.70
2023-03-10T07:45:25.751Z,1.90
2023-03-10T07:47:54.160Z,1.70
2023-03-10T07:50:21.649Z,1.67
2023-03-10T07:52:49.487Z,2.25
2023-03-10T07:55:16.359Z,1.80
2023-03-10T07:57:42.905Z,2.20
2023-03-10T08:00:10.341Z,1.70
2023-03-10T08:02:37.360Z,1.80
2023-03-10T08:05:04.098Z,1.70
2023-03-10T08:07:31.891Z,1.38
2023-03-10T08:09:58.486Z,1.30
2023-03-10T08:12:25.468Z,1.33
2023-03-10T08:14:52.447Z,1.73
2023-03-10T08:17:19.790Z,1.25
2023-03-10T08:19:46.241Z,1.38
2023-03-10T08:22:12.785Z,1.23
2023-03-10T08:24:39.416Z,0.90
2023-03-10T08:27:06.024Z,0.90
2023-03-10T08:29:32.621Z,1.00
2023-03-10T08:31:59.202Z,1.10
2023-03-10T08:34:25.633Z,0.85
2023-03-10T08:36:52.293Z,1.10
2023-03-10T08:39:18.924Z,1.25
2023-03-10T08:41:49.099Z,1.08
2023-03-10T08:44:18.317Z,1.05
2023-03-10T08:46:47.513Z,1.00
2023-03-10T08:49:15.726Z,2.22
2023-03-10T08:51:42.755Z,0.50
2023-03-10T08:54:12.077Z,0.90
2023-03-10T08:56:38.814Z,1.83
2023-03-10T08:59:05.940Z,0.57
2023-03-10T09:01:35.462Z,0.30
2023-03-10T09:04:03.368Z,0.30
2023-03-10T09:06:30.473Z,0.30
2023-03-10T09:08:57.425Z,0.30
2023-03-10T09:11:37.049Z,0.50
2023-03-10T09:14:06.492Z,0.30
2023-03-10T09:16:34.016Z,0.40
2023-03-10T09:19:01.264Z,0.20
2023-03-10T09:21:32.782Z,0.47
2023-03-10T09:24:00.856Z,0.10
2023-03-10T09:26:27.317Z,0.10
2023-03-10T09:28:56.880Z,0.43
2023-03-10T09:31:31.134Z,0.20
2023-03-10T09:33:58.784Z,0.15
2023-03-10T09:36:25.799Z,0.10
2023-03-10T09:38:52.370Z,0.10
2023-03-10T09:41:38.689Z,0.20
2023-03-10T09:44:17.194Z,0.20
2023-03-10T09:47:13.244Z,0.10
2023-03-10T09:50:00.354Z,0.10
2023-03-10T09:53:03.283Z,0.10
2023-03-10T09:55:47.579Z,0.20
2023-03-10T09:58:40.945Z,0.20
2023-03-10T10:01:17.189Z,0.20
2023-03-10T10:03:54.050Z,0.10
2023-03-10T10:06:43.490Z,0.10
2023-03-10T10:09:22.520Z,0.60
2023-03-10T10:11:48.965Z,0.25
2023-03-10T10:14:29.609Z,0.30
2023-03-10T10:17:08.406Z,0.20
2023-03-10T10:19:37.474Z,0.20
2023-03-10T10:22:26.730Z,0.22
2023-03-10T10:25:11.278Z,0.40
2023-03-10T10:27:39.605Z,0.30
2023-03-10T10:30:44.650Z,0.40
2023-03-10T10:33:13.682Z,0.40
2023-03-10T10:36:01.689Z,0.80
2023-03-10T10:38:30.706Z,0.77
2023-03-10T10:41:07.354Z,0.43
2023-03-10T10:43:45.915Z,0.40
2023-03-10T10:46:15.203Z,0.40
2023-03-10T10:48:47.300Z,0.28
2023-03-10T10:51:29.513Z,0.35
2023-03-10T10:54:02.229Z,0.40
2023-03-10T10:56:29.366Z,0.30
2023-03-10T10:59:18.097Z,0.30
2023-03-10T11:02:00.160Z,0.32
2023-03-10T11:04:33.877Z,0.57
2023-03-10T11:07:24.373Z,0.75
2023-03-10T11:09:51.278Z,0.38
2023-03-10T11:12:44.303Z,0.30
2023-03-10T11:15:20.758Z,0.30
2023-03-10T11:20:30.849Z,0.38
2023-03-10T11:23:21.714Z,0.35
2023-03-10T11:26:16.992Z,0.45
2023-03-10T11:28:53.216Z,0.40
2023-03-10T11:31:37.876Z,0.43
2023-03-10T11:34:18.554Z,0.40
2023-03-10T11:36:56.008Z,0.30
2023-03-10T11:39:37.603Z,0.40
2023-03-10T11:42:34.434Z,0.30
2023-03-10T11:45:15.889Z,0.13
2023-03-10T11:48:07.908Z,0.30
2023-03-10T11:50:53.536Z,0.85
2023-03-10T11:53:26.089Z,0.30
2023-03-10T11:55:54.069Z,0.15
2023-03-10T11:58:49.929Z,0.28
2023-03-10T12:01:25.198Z,0.20
2023-03-10T12:04:05.236Z,0.10
2023-03-10T12:06:46.765Z,0.10
2023-03-10T12:09:31.381Z,0.13
2023-03-10T12:11:58.012Z,0.30
2023-03-10T12:14:25.456Z,0.10
2023-03-10T12:16:53.366Z,0.00
2023-03-10T12:19:20.167Z,0.10
2023-03-10T12:22:21.400Z,0.20
2023-03-10T12:24:55.047Z,0.08
2023-03-10T12:27:21.574Z,0.05
2023-03-10T12:29:48.696Z,0.10
2023-03-10T12:32:47.938Z,0.00
2023-03-10T12:35:20.589Z,0.03
2023-03-10T12:37:48.298Z,0.10
2023-03-10T12:41:05.823Z,0.03
2023-03-10T12:43:51.563Z,0.10
2023-03-10T12:46:45.757Z,0.10
2023-03-10T12:49:25.581Z,0.10
2023-03-10T12:52:19.090Z,0.00
2023-03-10T12:55:25.964Z,0.10
2023-03-10T12:58:36.736Z,0.10
2023-03-10T13:01:07.580Z,0.00
2023-03-10T13:03:55.687Z,0.00
2023-03-10T13:06:55.167Z,0.00
2023-03-10T13:09:39.032Z,0.10
2023-03-10T13:12:28.335Z,0.20
2023-03-10T13:15:27.693Z,0.10
2023-03-10T13:18:23.285Z,0.10
2023-03-10T13:20:50.096Z,0.10
2023-03-10T13:23:36.679Z,0.10
2023-03-10T13:26:07.266Z,0.10
2023-03-10T13:28:35.304Z,0.10
2023-03-10T13:31:16.929Z,0.30
2023-03-10T13:33:52.707Z,0.00
2023-03-10T13:39:34.615Z,0.10
2023-03-10T13:42:03.133Z,0.13
2023-03-10T13:44:42.228Z,0.00
2023-03-10T13:47:16.040Z,0.00
2023-03-10T13:49:47.969Z,0.10
2023-03-10T13:52:23.381Z,0.10
2023-03-10T13:54:50.428Z,0.10
2023-03-10T13:57:43.622Z,0.10
2023-03-10T14:00:17.951Z,0.10
2023-03-10T14:02:49.787Z,0.00
2023-03-10T14:05:42.323Z,0.10
2023-03-10T14:08:32.770Z,0.20
2023-03-10T14:11:37.888Z,0.00
2023-03-10T14:14:07.827Z,0.00
2023-03-10T14:16:56.357Z,0.40
2023-03-10T14:19:41.103Z,0.00
2023-03-10T14:22:43.423Z,0.10
2023-03-10T14:25:18.483Z,0.10
2023-03-10T14:30:43.842Z,0.03
2023-03-10T14:33:13.360Z,0.10
2023-03-10T14:35:40.139Z,0.10
2023-03-10T14:38:08.084Z,0.13
2023-03-10T14:40:48.953Z,0.70
2023-03-10T14:43:50.970Z,0.20
2023-03-10T14:46:17.934Z,0.10
2023-03-10T14:48:45.980Z,0.10
2023-03-10T14:51:25.639Z,0.10
2023-03-10T14:53:59.218Z,0.20
2023-03-10T14:56:25.624Z,0.20
2023-03-10T14:58:54.452Z,0.10
2023-03-10T15:01:21.581Z,0.10
2023-03-10T15:03:49.221Z,0.20
2023-03-10T15:06:19.182Z,0.20
2023-03-10T15:08:45.610Z,0.20
2023-03-10T15:11:14.693Z,0.10
2023-03-10T15:13:42.745Z,0.10
2023-03-10T15:16:12.289Z,0.30
2023-03-10T15:18:38.785Z,0.10
2023-03-10T15:21:05.374Z,0.10
2023-03-10T15:23:31.808Z,0.20
2023-03-10T15:25:58.958Z,0.00
2023-03-10T15:28:31.598Z,0.32
2023-03-10T15:30:58.116Z,0.20
2023-03-10T15:33:24.561Z,0.30
2023-03-10T15:35:53.263Z,0.10
2023-03-10T15:38:19.729Z,0.28
2023-03-10T15:40:46.628Z,0.10
2023-03-10T15:43:13.839Z,0.10
2023-03-10T15:45:42.568Z,0.10
2023-03-10T15:48:10.281Z,0.30
2023-03-10T15:50:41.948Z,0.43
2023-03-10T15:53:08.859Z,0.70
2023-03-10T15:55:41.371Z,0.20
2023-03-10T15:58:09.182Z,0.40
2023-03-10T16:00:35.688Z,0.40
2023-03-10T16:03:02.728Z,0.50
2023-03-10T16:05:29.615Z,0.80
2023-03-10T16:07:56.038Z,0.60
2023-03-10T16:10:22.420Z,0.70
2023-03-10T16:12:48.811Z,0.70
2023-03-10T16:15:18.069Z,0.85
2023-03-10T16:17:45.043Z,1.00
2023-03-10T16:20:16.889Z,0.80
2023-03-10T16:22:43.370Z,0.90
2023-03-10T16:25:19.217Z,1.38
2023-03-10T16:27:55.893Z,1.13
2023-03-10T16:30:24.649Z,1.20
2023-03-10T16:32:52.106Z,1.20
2023-03-10T16:35:18.688Z,1.15
2023-03-10T16:37:45.121Z,1.10
2023-03-10T16:40:12.161Z,0.98
2023-03-10T16:42:45.405Z,1.10
2023-03-10T16:45:12.450Z,1.25
2023-03-10T16:47:39.015Z,1.23
2023-03-10T16:50:18.352Z,1.25
2023-03-10T16:52:44.752Z,1.00
2023-03-10T16:55:49.152Z,1.13
2023-03-10T16:58:15.550Z,1.23
2023-03-10T17:00:45.146Z,1.40
2023-03-10T17:03:11.543Z,1.20
2023-03-10T17:05:39.141Z,1.00
2023-03-10T17:08:06.047Z,1.20
2023-03-10T17:10:33.367Z,1.02
2023-03-10T17:12:59.769Z,1.45
2023-03-10T17:15:26.133Z,1.15
2023-03-10T17:17:52.849Z,1.38
2023-03-10T17:20:25.706Z,1.50
2023-03-10T17:23:04.765Z,1.70
2023-03-10T17:26:01.202Z,1.95
2023-03-10T17:28:27.705Z,1.33
2023-03-10T17:30:54.075Z,1.58
2023-03-10T17:33:25.474Z,1.17
2023-03-10T17:35:51.858Z,1.33
2023-03-10T17:38:22.261Z,2.78
2023-03-10T17:40:50.657Z,1.75
2023-03-10T17:43:32.894Z,2.10
2023-03-10T17:46:03.251Z,1.45
2023-03-10T17:48:36.916Z,1.73
2023-03-10T17:51:03.885Z,1.77
2023-03-10T17:53:31.046Z,2.28
2023-03-10T17:55:57.665Z,1.90
2023-03-10T17:58:24.151Z,1.73
2023-03-10T18:00:50.502Z,2.03
2023-03-10T18:03:22.157Z,2.05
2023-03-10T18:05:48.720Z,1.92
2023-03-10T18:08:15.211Z,1.70
2023-03-10T18:10:42.032Z,1.77
2023-03-10T18:13:11.071Z,1.80
2023-03-10T18:15:51.077Z,1.70
2023-03-10T18:18:17.495Z,2.47
2023-03-10T18:20:43.932Z,1.88
2023-03-10T18:23:10.342Z,1.92
2023-03-10T18:25:43.413Z,1.90
2023-03-10T18:28:15.125Z,2.22
2023-03-10T18:30:41.912Z,2.40
2023-03-10T18:33:08.645Z,2.22
2023-03-10T18:35:38.557Z,2.72
2023-03-10T18:38:05.529Z,1.75
2023-03-10T18:40:32.297Z,2.33
2023-03-10T18:42:58.762Z,2.42
2023-03-10T18:45:25.187Z,1.92
2023-03-10T18:47:51.627Z,1.80
2023-03-10T18:50:18.121Z,1.92
2023-03-10T18:52:45.841Z,2.00
2023-03-10T18:55:13.574Z,2.05
2023-03-10T18:57:43.878Z,2.25
2023-03-10T19:00:27.550Z,1.88
2023-03-10T19:02:54.305Z,2.03
2023-03-10T19:05:21.261Z,2.85
2023-03-10T19:07:47.769Z,2.03
2023-03-10T19:10:16.508Z,2.00
2023-03-10T19:12:42.971Z,1.70
2023-03-10T19:15:14.476Z,1.80
2023-03-10T19:17:41.662Z,1.63
2023-03-10T19:20:11.658Z,2.15
2023-03-10T19:22:51.139Z,2.03
2023-03-10T19:25:18.672Z,1.50
2023-03-10T19:28:02.618Z,1.38
2023-03-10T19:30:34.923Z,2.20
2023-03-10T19:33:14.532Z,2.10
2023-03-10T19:35:42.122Z,2.20
2023-03-10T19:38:08.685Z,2.40
2023-03-10T19:40:35.445Z,1.90
2023-03-10T19:43:05.918Z,2.10
2023-03-10T19:45:32.417Z,2.42
2023-03-10T19:47:58.953Z,2.20
2023-03-10T19:50:42.599Z,2.42
2023-03-10T19:53:10.086Z,2.60
2023-03-10T19:55:43.877Z,2.70
2023-03-10T19:58:10.379Z,2.17
2023-03-10T20:00:40.082Z,2.20
2023-03-10T20:03:10.657Z,1.98
2023-03-10T20:05:42.676Z,2.13
2023-03-10T20:08:13.612Z,1.52
2023-03-10T20:10:41.141Z,2.08
2023-03-10T20:13:08.529Z,1.75
2023-03-10T20:15:37.911Z,1.60
2023-03-10T20:18:05.595Z,1.77
2023-03-10T20:20:33.588Z,1.70
2023-03-10T20:23:00.120Z,2.10
2023-03-10T20:25:31.489Z,2.08
2023-03-10T20:28:01.983Z,1.80
2023-03-10T20:30:30.710Z,2.25
2023-03-10T20:33:02.237Z,1.70
2023-03-10T20:35:34.954Z,2.15
2023-03-10T20:38:05.609Z,2.13
2023-03-10T20:40:33.082Z,1.55
2023-03-10T20:42:59.743Z,1.70
2023-03-10T20:45:34.834Z,1.77
2023-03-10T20:48:01.248Z,2.40
2023-03-10T20:50:29.293Z,1.88
2023-03-10T20:52:59.448Z,1.80
2023-03-10T20:55:28.612Z,1.40
2023-03-10T20:57:57.268Z,2.13
2023-03-10T21:00:26.154Z,1.75
2023-03-10T21:03:03.675Z,1.65
2023-03-10T21:05:30.146Z,1.58
2023-03-10T21:07:57.939Z,1.23
2023-03-10T21:10:26.503Z,1.55
2023-03-10T21:12:59.064Z,1.50
2023-03-10T21:15:25.809Z,1.73
2023-03-10T21:17:52.455Z,2.60
2023-03-10T21:20:21.918Z,1.60
2023-03-10T21:22:50.406Z,1.65
2023-03-10T21:25:20.714Z,1.73
2023-03-10T21:27:49.585Z,2.17
2023-03-10T21:30:17.347Z,1.58
2023-03-10T21:32:44.144Z,1.67
2023-03-10T21:35:13.778Z,1.42
2023-03-10T21:37:42.343Z,1.58
2023-03-10T21:40:10.378Z,1.30
2023-03-10T21:42:40.361Z,1.60
2023-03-10T21:45:08.758Z,1.40
2023-03-10T21:47:35.181Z,1.40
2023-03-10T21:50:01.950Z,1.38
2023-03-10T21:52:31.356Z,1.85
2023-03-10T21:54:57.722Z,1.25
2023-03-10T21:57:24.350Z,1.40
2023-03-10T21:59:50.737Z,1.70
2023-03-10T22:02:40.385Z,1.20
2023-03-10T22:05:08.483Z,1.20
2023-03-10T22:07:35.045Z,1.52
2023-03-10T22:10:09.555Z,1.33
2023-03-10T22:12:36.000Z,1.10
2023-03-10T22:15:02.660Z,1.33
2023-03-10T22:17:29.059Z,0.98
2023-03-10T22:19:55.513Z,1.30
2023-03-10T22:22:22.622Z,1.20
2023-03-10T22:24:57.095Z,1.15
2023-03-10T22:27:23.525Z,1.00
2023-03-10T22:29:49.905Z,1.10
2023-03-10T22:32:16.327Z,1.40
2023-03-10T22:34:42.701Z,1.17
2023-03-10T22:37:10.241Z,1.45
2023-03-10T22:39:38.033Z,1.48
2023-03-10T22:42:05.231Z,1.15
2023-03-10T22:44:36.256Z,1.10
2023-03-10T22:47:03.325Z,1.30
2023-03-10T22:49:29.799Z,1.27
2023-03-10T22:51:57.485Z,1.45
2023-03-10T22:54:24.228Z,1.30
2023-03-10T22:56:50.725Z,1.48
2023-03-10T22:59:17.095Z,1.27
2023-03-10T23:01:46.632Z,1.35
2023-03-10T23:04:13.903Z,1.48
2023-03-10T23:06:40.387Z,1.38
2023-03-10T23:09:09.215Z,1.35
2023-03-10T23:11:48.894Z,1.60
2023-03-10T23:14:15.626Z,1.20
2023-03-10T23:16:42.058Z,1.40
2023-03-10T23:19:08.792Z,1.48
2023-03-10T23:21:35.899Z,1.20
2023-03-10T23:24:02.390Z,1.55
2023-03-10T23:26:30.066Z,1.30
2023-03-10T23:28:56.765Z,1.40
2023-03-10T23:31:23.177Z,1.45
2023-03-10T23:34:23.730Z,1.40
2023-03-10T23:36:50.127Z,1.60
2023-03-10T23:39:16.501Z,1.35
2023-03-10T23:41:42.929Z,2.00
2023-03-10T23:44:09.394Z,1.92
2023-03-10T23:46:35.839Z,2.20
2023-03-10T23:49:02.225Z,1.95
2023-03-10T23:51:30.065Z,1.90
2023-03-10T23:53:56.467Z,1.90
2023-03-10T23:56:22.868Z,1.70
2023-03-10T23:58:49.263Z,1.73
